createdAt,value
2023-02-11T00:01:49.397Z,21.97
2023-02-11T00:04:16.106Z,19.80
2023-02-11T00:06:42.711Z,15.13
2023-02-11T00:09:10.397Z,23.90
2023-02-11T00:11:37.077Z,25.10
2023-02-11T00:14:07.616Z,27.83
2023-02-11T00:16:34.545Z,24.40
2023-02-11T00:19:02.325Z,29.60
2023-02-11T00:21:29.749Z,32.20
2023-02-11T00:23:57.176Z,26.80
2023-02-11T00:26:32.611Z,31.43
2023-02-11T00:29:00.770Z,35.00
2023-02-11T00:31:28.142Z,30.03
2023-02-11T00:33:55.083Z,33.50
2023-02-11T00:36:25.122Z,33.70
2023-02-11T00:38:53.262Z,29.77
2023-02-11T00:41:21.171Z,29.70
2023-02-11T00:43:48.215Z,31.47
2023-02-11T00:46:15.757Z,33.10
2023-02-11T00:48:42.402Z,37.47
2023-02-11T00:51:09.544Z,35.87
2023-02-11T00:53:36.131Z,32.30
2023-02-11T00:56:02.827Z,25.03
2023-02-11T00:58:29.480Z,31.57
2023-02-11T01:00:56.397Z,33.40
2023-02-11T01:03:23.494Z,25.47
2023-02-11T01:05:50.258Z,33.80
2023-02-11T01:08:17.036Z,28.80
2023-02-11T01:10:43.965Z,34.47
2023-02-11T01:13:10.975Z,34.03
2023-02-11T01:15:37.631Z,27.13
2023-02-11T01:18:05.721Z,29.87
2023-02-11T01:20:32.802Z,27.10
2023-02-11T01:22:59.410Z,36.40
2023-02-11T01:25:26.023Z,39.27
2023-02-11T01:27:52.617Z,24.73
2023-02-11T01:30:19.508Z,37.27
2023-02-11T01:32:46.077Z,36.67
2023-02-11T01:35:12.744Z,29.30
2023-02-11T01:37:39.452Z,25.90
2023-02-11T01:40:08.710Z,31.37
2023-02-11T01:42:35.389Z,26.43
2023-02-11T01:45:22.060Z,34.17
2023-02-11T01:47:48.623Z,32.07
2023-02-11T01:50:15.309Z,21.53
2023-02-11T01:52:42.542Z,31.50
2023-02-11T01:55:30.922Z,25.53
2023-02-11T01:58:02.339Z,21.47
2023-02-11T02:00:38.800Z,25.67
2023-02-11T02:03:14.185Z,31.60
2023-02-11T02:05:53.119Z,31.17
2023-02-11T02:08:26.169Z,34.07
2023-02-11T02:10:56.619Z,32.10
2023-02-11T02:13:23.878Z,27.23
2023-02-11T02:16:06.668Z,31.93
2023-02-11T02:18:52.954Z,25.67
2023-02-11T02:21:47.432Z,37.30
2023-02-11T02:24:32.648Z,30.93
2023-02-11T02:27:25.769Z,30.57
2023-02-11T02:29:55.222Z,26.20
2023-02-11T02:32:46.207Z,28.93
2023-02-11T02:35:27.012Z,27.53
2023-02-11T02:38:26.430Z,23.07
2023-02-11T02:41:17.561Z,23.67
2023-02-11T02:43:47.620Z,19.93
2023-02-11T02:46:20.995Z,31.80
2023-02-11T02:48:52.620Z,36.23
2023-02-11T02:51:52.435Z,33.40
2023-02-11T02:54:43.929Z,29.87
2023-02-11T02:57:43.293Z,32.40
2023-02-11T03:00:31.151Z,27.13
2023-02-11T03:03:22.208Z,24.83
2023-02-11T03:06:11.188Z,32.03
2023-02-11T03:08:50.940Z,20.33
2023-02-11T03:11:19.320Z,37.07
2023-02-11T03:13:48.479Z,32.90
2023-02-11T03:16:38.965Z,25.20
2023-02-11T03:19:12.556Z,28.33
2023-02-11T03:21:41.635Z,29.10
2023-02-11T03:24:14.577Z,27.27
2023-02-11T03:26:48.621Z,28.67
2023-02-11T03:29:37.446Z,26.63
2023-02-11T03:32:15.961Z,25.90
2023-02-11T03:34:42.943Z,23.20
2023-02-11T03:37:12.208Z,16.13
2023-02-11T03:39:44.288Z,24.93
2023-02-11T03:42:13.351Z,21.13
2023-02-11T03:44:48.638Z,25.60
2023-02-11T03:47:18.493Z,22.40
2023-02-11T03:49:46.974Z,30.63
2023-02-11T03:52:15.458Z,19.13
2023-02-11T03:54:45.900Z,21.67
2023-02-11T03:57:12.457Z,21.77
2023-02-11T03:59:56.624Z,23.57
2023-02-11T04:02:32.886Z,18.97
2023-02-11T04:04:59.944Z,25.10
2023-02-11T04:07:26.834Z,15.43
2023-02-11T04:09:54.066Z,24.53
2023-02-11T04:12:21.081Z,25.87
2023-02-11T04:14:47.640Z,32.93
2023-02-11T04:17:14.249Z,29.80
2023-02-11T04:19:40.899Z,24.37
2023-02-11T04:22:07.588Z,28.47
2023-02-11T04:24:34.642Z,26.77
2023-02-11T04:27:01.413Z,30.20
2023-02-11T04:29:28.355Z,29.93
2023-02-11T04:31:55.227Z,32.10
2023-02-11T04:34:24.334Z,30.20
2023-02-11T04:36:50.971Z,23.20
2023-02-11T04:39:17.655Z,20.27
2023-02-11T04:41:44.240Z,28.10
2023-02-11T04:44:10.935Z,30.93
2023-02-11T04:46:37.586Z,31.93
2023-02-11T04:49:04.308Z,27.43
2023-02-11T04:51:31.311Z,20.43
2023-02-11T04:53:57.943Z,28.20
2023-02-11T04:56:24.530Z,31.47
2023-02-11T04:58:51.099Z,29.40
2023-02-11T05:01:17.898Z,25.77
2023-02-11T05:03:44.637Z,28.07
2023-02-11T05:06:11.936Z,27.27
2023-02-11T05:08:39.118Z,33.40
2023-02-11T05:11:06.021Z,33.60
2023-02-11T05:13:33.018Z,39.77
2023-02-11T05:15:59.640Z,38.07
2023-02-11T05:18:26.214Z,30.97
2023-02-11T05:20:52.762Z,28.70
2023-02-11T05:23:19.379Z,38.00
2023-02-11T05:25:46.202Z,34.30
2023-02-11T05:28:12.781Z,36.27
2023-02-11T05:30:39.398Z,37.97
2023-02-11T05:33:06.054Z,34.60
2023-02-11T05:35:32.636Z,37.50
2023-02-11T05:37:59.333Z,34.50
2023-02-11T05:40:25.867Z,30.00
2023-02-11T05:42:52.445Z,37.27
2023-02-11T05:45:19.136Z,30.10
2023-02-11T05:47:45.703Z,33.50
2023-02-11T05:50:12.260Z,33.97
2023-02-11T05:52:38.838Z,29.60
2023-02-11T05:55:05.955Z,19.27
2023-02-11T05:57:32.602Z,29.87
2023-02-11T05:59:59.154Z,29.23
2023-02-11T06:02:25.828Z,33.23
2023-02-11T06:04:52.589Z,25.07
2023-02-11T06:07:19.669Z,32.43
2023-02-11T06:09:46.254Z,31.37
2023-02-11T06:12:12.807Z,31.23
2023-02-11T06:14:39.572Z,28.23
2023-02-11T06:17:06.134Z,36.97
2023-02-11T06:19:32.678Z,27.03
2023-02-11T06:21:59.270Z,31.90
2023-02-11T06:24:51.000Z,28.93
2023-02-11T06:27:12.631Z,28.63
2023-02-11T06:29:39.409Z,32.30
2023-02-11T06:32:06.079Z,30.10
2023-02-11T06:34:32.770Z,36.20
2023-02-11T06:36:59.369Z,32.93
2023-02-11T06:39:25.937Z,35.73
2023-02-11T06:41:52.576Z,21.23
2023-02-11T06:44:19.122Z,33.37
2023-02-11T06:46:45.802Z,26.77
2023-02-11T06:49:12.417Z,34.17
2023-02-11T06:51:39.073Z,30.27
2023-02-11T06:54:06.745Z,30.00
2023-02-11T06:56:33.572Z,33.17
2023-02-11T06:59:00.592Z,30.63
2023-02-11T07:01:28.090Z,37.87
2023-02-11T07:03:54.905Z,30.00
2023-02-11T07:06:24.762Z,31.33
2023-02-11T07:08:51.405Z,34.53
2023-02-11T07:11:24.393Z,31.33
2023-02-11T07:13:52.568Z,30.17
2023-02-11T07:16:20.193Z,23.13
2023-02-11T07:18:47.937Z,30.90
2023-02-11T07:21:18.676Z,33.93
2023-02-11T07:23:45.544Z,32.37
2023-02-11T07:26:14.987Z,30.30
2023-02-11T07:28:42.231Z,36.37
2023-02-11T07:31:14.735Z,38.23
2023-02-11T07:33:41.958Z,42.93
2023-02-11T07:36:10.500Z,37.53
2023-02-11T07:38:38.046Z,38.13
2023-02-11T07:41:10.344Z,29.13
2023-02-11T07:43:38.000Z,32.80
2023-02-11T07:46:11.356Z,35.17
2023-02-11T07:48:38.056Z,40.97
2023-02-11T07:51:10.553Z,19.07
2023-02-11T07:53:37.684Z,21.10
2023-02-11T07:56:05.474Z,33.47
2023-02-11T07:58:32.687Z,30.97
2023-02-11T08:01:07.677Z,35.30
2023-02-11T08:03:35.596Z,34.30
2023-02-11T08:06:07.871Z,42.50
2023-02-11T08:08:34.791Z,35.17
2023-02-11T08:11:07.743Z,27.70
2023-02-11T08:13:34.907Z,31.90
2023-02-11T08:16:01.630Z,35.37
2023-02-11T08:18:28.260Z,33.93
2023-02-11T08:20:54.912Z,32.67
2023-02-11T08:23:21.480Z,39.57
2023-02-11T08:25:48.059Z,41.37
2023-02-11T08:28:14.676Z,28.03
2023-02-11T08:30:41.481Z,31.97
2023-02-11T08:33:08.087Z,35.23
2023-02-11T08:35:36.325Z,31.63
2023-02-11T08:38:02.914Z,28.60
2023-02-11T08:40:29.506Z,31.90
2023-02-11T08:42:56.323Z,33.63
2023-02-11T08:45:22.868Z,39.50
2023-02-11T08:47:49.508Z,28.03
2023-02-11T08:50:16.062Z,34.03
2023-02-11T08:52:43.055Z,34.40
2023-02-11T08:55:09.935Z,34.87
2023-02-11T08:57:36.621Z,29.17
2023-02-11T09:00:04.005Z,30.60
2023-02-11T09:02:30.674Z,29.10
2023-02-11T09:04:57.255Z,30.67
2023-02-11T09:07:23.823Z,21.23
2023-02-11T09:09:50.387Z,19.30
2023-02-11T09:12:16.972Z,32.20
2023-02-11T09:14:43.636Z,34.33
2023-02-11T09:17:10.298Z,27.13
2023-02-11T09:19:36.966Z,37.20
2023-02-11T09:22:03.605Z,26.23
2023-02-11T09:24:30.160Z,40.70
2023-02-11T09:26:56.700Z,28.80
2023-02-11T09:29:23.484Z,36.73
2023-02-11T09:31:50.290Z,34.30
2023-02-11T09:34:17.225Z,38.30
2023-02-11T09:36:43.819Z,39.27
2023-02-11T09:39:16.794Z,35.47
2023-02-11T09:42:21.071Z,36.90
2023-02-11T09:44:48.015Z,46.30
2023-02-11T09:47:36.952Z,26.07
2023-02-11T09:50:10.464Z,31.63
2023-02-11T09:52:56.665Z,43.30
2023-02-11T09:55:46.898Z,41.47
2023-02-11T09:58:16.364Z,34.40
2023-02-11T10:00:57.527Z,39.53
2023-02-11T10:03:46.184Z,38.57
2023-02-11T10:06:32.394Z,43.30
2023-02-11T10:09:30.296Z,38.97
2023-02-11T10:12:30.419Z,37.63
2023-02-11T10:15:09.257Z,37.90
2023-02-11T10:17:55.180Z,38.17
2023-02-11T10:20:36.599Z,37.30
2023-02-11T10:23:24.759Z,41.63
2023-02-11T10:25:56.577Z,43.07
2023-02-11T10:28:29.735Z,36.03
2023-02-11T10:31:35.775Z,40.27
2023-02-11T10:34:11.351Z,52.67
2023-02-11T10:36:41.897Z,48.40
2023-02-11T10:39:13.657Z,46.83
2023-02-11T10:41:49.195Z,51.20
2023-02-11T10:44:38.534Z,39.97
2023-02-11T10:47:27.549Z,47.67
2023-02-11T10:49:54.411Z,50.37
2023-02-11T10:52:26.396Z,42.47
2023-02-11T10:55:10.480Z,47.90
2023-02-11T10:57:44.557Z,43.40
2023-02-11T11:00:29.818Z,47.30
2023-02-11T11:02:59.990Z,49.30
2023-02-11T11:05:38.401Z,55.53
2023-02-11T11:08:07.581Z,45.33
2023-02-11T11:11:05.070Z,47.03
2023-02-11T11:13:37.775Z,34.77
2023-02-11T11:16:33.939Z,43.67
2023-02-11T11:19:06.600Z,46.03
2023-02-11T11:21:51.362Z,51.37
2023-02-11T11:24:44.284Z,53.93
2023-02-11T11:27:19.494Z,44.60
2023-02-11T11:29:57.216Z,51.60
2023-02-11T11:32:28.234Z,52.50
2023-02-11T11:34:59.665Z,50.87
2023-02-11T11:37:29.341Z,41.13
2023-02-11T11:40:22.033Z,51.13
2023-02-11T11:43:03.393Z,52.83
2023-02-11T11:45:30.255Z,57.93
2023-02-11T11:48:14.616Z,56.80
2023-02-11T11:50:52.406Z,58.60
2023-02-11T11:53:34.291Z,59.83
2023-02-11T11:56:16.555Z,59.03
2023-02-11T11:58:43.754Z,54.57
2023-02-11T12:01:50.445Z,42.93
2023-02-11T12:04:42.049Z,56.00
2023-02-11T12:07:36.886Z,54.97
2023-02-11T12:10:39.778Z,57.67
2023-02-11T12:13:25.441Z,53.13
2023-02-11T12:16:03.815Z,56.00
2023-02-11T12:18:55.074Z,49.77
2023-02-11T12:21:37.656Z,55.43
2023-02-11T12:24:29.905Z,53.17
2023-02-11T12:27:00.092Z,64.67
2023-02-11T12:29:51.511Z,54.50
2023-02-11T12:32:38.230Z,59.23
2023-02-11T12:35:22.980Z,59.37
2023-02-11T12:38:15.915Z,63.17
2023-02-11T12:40:50.123Z,56.90
2023-02-11T12:43:38.256Z,56.50
2023-02-11T12:46:33.215Z,57.50
2023-02-11T12:49:22.136Z,60.80
2023-02-11T12:51:57.891Z,61.80
2023-02-11T12:54:54.296Z,55.30
2023-02-11T12:57:27.600Z,61.00
2023-02-11T13:00:00.265Z,61.80
2023-02-11T13:02:45.584Z,56.80
2023-02-11T13:05:27.139Z,52.73
2023-02-11T13:08:02.331Z,58.10
2023-02-11T13:10:36.454Z,61.17
2023-02-11T13:13:16.547Z,59.43
2023-02-11T13:15:46.526Z,58.33
2023-02-11T13:18:22.401Z,56.90
2023-02-11T13:20:56.561Z,63.17
2023-02-11T13:23:31.725Z,57.13
2023-02-11T13:26:07.363Z,48.27
2023-02-11T13:28:48.830Z,57.07
2023-02-11T13:31:16.754Z,61.20
2023-02-11T13:33:44.279Z,56.27
2023-02-11T13:36:14.513Z,55.80
2023-02-11T13:38:50.473Z,51.33
2023-02-11T13:41:29.427Z,60.80
2023-02-11T13:44:09.561Z,54.33
2023-02-11T13:47:05.090Z,56.10
2023-02-11T13:49:35.568Z,64.50
2023-02-11T13:52:05.838Z,57.43
2023-02-11T13:54:39.560Z,60.83
2023-02-11T13:57:21.400Z,58.93
2023-02-11T13:59:56.881Z,58.80
2023-02-11T14:02:48.821Z,58.43
2023-02-11T14:05:36.735Z,42.73
2023-02-11T14:08:27.776Z,57.00
2023-02-11T14:10:59.840Z,65.20
2023-02-11T14:13:32.647Z,58.33
2023-02-11T14:16:06.931Z,61.30
2023-02-11T14:18:45.534Z,67.30
2023-02-11T14:21:40.209Z,56.43
2023-02-11T14:24:09.985Z,56.90
2023-02-11T14:26:56.248Z,57.57
2023-02-11T14:29:30.049Z,60.50
2023-02-11T14:32:25.242Z,60.20
2023-02-11T14:34:54.661Z,53.70
2023-02-11T14:37:35.456Z,57.13
2023-02-11T14:40:17.714Z,55.37
2023-02-11T14:42:45.376Z,59.43
2023-02-11T14:45:19.961Z,53.80
2023-02-11T14:47:58.182Z,61.77
2023-02-11T14:50:47.351Z,59.50
2023-02-11T14:53:18.154Z,61.63
2023-02-11T14:55:53.903Z,58.93
2023-02-11T14:58:24.221Z,63.83
2023-02-11T15:01:02.628Z,58.83
2023-02-11T15:03:32.568Z,61.43
2023-02-11T15:06:21.227Z,58.27
2023-02-11T15:08:54.343Z,57.13
2023-02-11T15:11:23.815Z,61.67
2023-02-11T15:13:53.702Z,63.27
2023-02-11T15:16:28.279Z,46.83
2023-02-11T15:19:00.517Z,39.30
2023-02-11T15:21:30.800Z,54.33
2023-02-11T15:24:23.817Z,59.67
2023-02-11T15:27:15.956Z,58.93
2023-02-11T15:29:49.156Z,49.90
2023-02-11T15:32:18.245Z,48.80
2023-02-11T15:34:46.614Z,59.63
2023-02-11T15:37:20.910Z,56.60
2023-02-11T15:39:48.149Z,46.63
2023-02-11T15:42:17.566Z,57.27
2023-02-11T15:44:44.368Z,55.07
2023-02-11T15:47:12.980Z,55.93
2023-02-11T15:49:45.220Z,58.23
2023-02-11T15:52:14.140Z,48.90
2023-02-11T15:54:45.561Z,56.83
2023-02-11T15:57:12.500Z,55.50
2023-02-11T15:59:41.527Z,56.90
2023-02-11T16:02:31.218Z,54.90
2023-02-11T16:05:04.240Z,59.00
2023-02-11T16:07:46.955Z,54.60
2023-02-11T16:10:24.693Z,51.70
2023-02-11T16:13:11.653Z,57.33
2023-02-11T16:15:45.140Z,56.60
2023-02-11T16:18:38.461Z,54.03
2023-02-11T16:21:12.177Z,54.23
2023-02-11T16:23:44.285Z,55.50
2023-02-11T16:26:27.207Z,56.10
2023-02-11T16:29:01.920Z,56.83
2023-02-11T16:31:37.502Z,56.03
2023-02-11T16:34:12.133Z,55.43
2023-02-11T16:36:38.788Z,55.53
2023-02-11T16:39:05.368Z,62.37
2023-02-11T16:41:31.924Z,53.60
2023-02-11T16:43:59.023Z,56.10
2023-02-11T16:46:27.272Z,54.97
2023-02-11T16:48:58.692Z,56.30
2023-02-11T16:51:25.443Z,62.83
2023-02-11T16:53:51.985Z,62.90
2023-02-11T16:56:18.689Z,61.43
2023-02-11T16:58:45.600Z,57.60
2023-02-11T17:01:14.091Z,61.37
2023-02-11T17:03:40.989Z,63.60
2023-02-11T17:06:10.631Z,58.63
2023-02-11T17:08:37.296Z,62.50
2023-02-11T17:11:04.334Z,61.93
2023-02-11T17:13:31.092Z,61.23
2023-02-11T17:15:57.875Z,57.40
2023-02-11T17:18:24.499Z,60.83
2023-02-11T17:20:51.178Z,57.83
2023-02-11T17:23:17.855Z,60.13
2023-02-11T17:25:44.459Z,55.70
2023-02-11T17:28:12.140Z,53.13
2023-02-11T17:30:41.351Z,58.00
2023-02-11T17:33:07.978Z,59.20
2023-02-11T17:35:34.767Z,58.43
2023-02-11T17:38:01.424Z,63.53
2023-02-11T17:40:28.040Z,62.43
2023-02-11T17:42:54.603Z,65.33
2023-02-11T17:45:22.387Z,61.10
2023-02-11T17:47:49.392Z,57.50
2023-02-11T17:50:16.189Z,63.27
2023-02-11T17:52:42.823Z,56.40
2023-02-11T17:55:09.414Z,62.63
2023-02-11T17:57:36.445Z,58.53
2023-02-11T18:00:06.274Z,56.97
2023-02-11T18:02:32.907Z,60.13
2023-02-11T18:04:59.590Z,59.03
2023-02-11T18:07:26.644Z,65.53
2023-02-11T18:09:53.265Z,67.17
2023-02-11T18:12:25.108Z,64.27
2023-02-11T18:14:58.025Z,64.30
2023-02-11T18:17:25.208Z,67.70
2023-02-11T18:19:55.948Z,68.47
2023-02-11T18:22:22.801Z,59.77
2023-02-11T18:24:54.362Z,64.53
2023-02-11T18:27:21.976Z,60.77
2023-02-11T18:29:48.619Z,60.20
2023-02-11T18:32:15.195Z,57.27
2023-02-11T18:34:42.130Z,61.77
2023-02-11T18:37:08.953Z,58.43
2023-02-11T18:39:35.974Z,57.97
2023-02-11T18:42:02.670Z,56.90
2023-02-11T18:44:29.367Z,64.47
2023-02-11T18:46:55.927Z,65.73
2023-02-11T18:49:22.520Z,59.13
2023-02-11T18:51:49.166Z,60.03
2023-02-11T18:55:05.423Z,64.93
2023-02-11T18:57:32.302Z,57.30
2023-02-11T18:59:58.918Z,52.13
2023-02-11T19:02:25.502Z,59.47
2023-02-11T19:04:52.296Z,65.73
2023-02-11T19:07:18.876Z,62.63
2023-02-11T19:09:45.600Z,62.90
2023-02-11T19:12:12.176Z,62.33
2023-02-11T19:14:38.765Z,61.77
2023-02-11T19:17:07.657Z,56.93
2023-02-11T19:19:36.195Z,61.67
2023-02-11T19:22:08.518Z,66.87
2023-02-11T19:24:37.174Z,62.77
2023-02-11T19:27:05.060Z,60.17
2023-02-11T19:29:33.471Z,61.70
2023-02-11T19:32:00.193Z,68.43
2023-02-11T19:34:26.941Z,62.73
2023-02-11T19:36:54.242Z,63.37
2023-02-11T19:39:21.386Z,61.77
2023-02-11T19:41:48.025Z,62.90
2023-02-11T19:44:14.717Z,63.80
2023-02-11T19:46:41.755Z,63.03
2023-02-11T19:49:09.865Z,61.00
2023-02-11T19:51:39.097Z,68.83
2023-02-11T19:54:06.884Z,59.97
2023-02-11T19:56:33.730Z,61.83
2023-02-11T19:59:02.526Z,61.50
2023-02-11T20:01:29.346Z,70.53
2023-02-11T20:03:57.388Z,64.53
2023-02-11T20:06:28.008Z,61.10
2023-02-11T20:08:58.416Z,62.50
2023-02-11T20:11:27.896Z,62.33
2023-02-11T20:13:54.906Z,56.80
2023-02-11T20:16:27.013Z,55.47
2023-02-11T20:19:00.691Z,67.37
2023-02-11T20:21:30.066Z,58.63
2023-02-11T20:23:57.789Z,58.87
2023-02-11T20:26:26.706Z,64.60
2023-02-11T20:28:55.005Z,60.43
2023-02-11T20:31:25.952Z,64.03
2023-02-11T20:33:52.639Z,65.53
2023-02-11T20:36:22.148Z,63.97
2023-02-11T20:38:49.226Z,66.33
2023-02-11T20:41:19.772Z,66.37
2023-02-11T20:43:48.657Z,61.53
2023-02-11T20:46:16.979Z,59.93
2023-02-11T20:48:43.719Z,59.10
2023-02-11T20:51:15.901Z,67.37
2023-02-11T20:53:47.702Z,59.27
2023-02-11T20:56:15.369Z,63.03
2023-02-11T20:58:42.318Z,57.47
2023-02-11T21:01:16.656Z,58.83
2023-02-11T21:03:50.840Z,61.97
2023-02-11T21:06:18.703Z,69.20
2023-02-11T21:08:45.454Z,63.30
2023-02-11T21:11:12.295Z,63.93
2023-02-11T21:13:41.136Z,68.73
2023-02-11T21:16:08.712Z,64.97
2023-02-11T21:18:35.668Z,58.17
2023-02-11T21:21:02.323Z,67.20
2023-02-11T21:23:29.264Z,65.57
2023-02-11T21:25:57.074Z,65.07
2023-02-11T21:28:27.702Z,67.67
2023-02-11T21:30:56.502Z,60.97
2023-02-11T21:33:25.003Z,66.90
2023-02-11T21:35:56.205Z,62.80
2023-02-11T21:38:23.880Z,63.07
2023-02-11T21:40:50.927Z,68.77
2023-02-11T21:43:17.941Z,70.47
2023-02-11T21:45:45.901Z,62.50
2023-02-11T21:48:13.797Z,65.10
2023-02-11T21:50:45.268Z,69.57
2023-02-11T21:53:12.407Z,62.23
2023-02-11T21:55:39.691Z,65.57
2023-02-11T21:58:06.506Z,70.27
2023-02-11T22:00:33.753Z,68.67
2023-02-11T22:03:00.418Z,70.97
2023-02-11T22:05:27.035Z,66.73
2023-02-11T22:07:53.616Z,65.97
2023-02-11T22:10:20.290Z,73.10
2023-02-11T22:12:46.896Z,64.13
2023-02-11T22:15:13.840Z,62.00
2023-02-11T22:17:40.404Z,66.67
2023-02-11T22:20:08.170Z,65.17
2023-02-11T22:22:35.253Z,69.53
2023-02-11T22:25:02.148Z,75.10
2023-02-11T22:27:28.886Z,68.70
2023-02-11T22:29:55.455Z,63.70
2023-02-11T22:32:22.129Z,69.90
2023-02-11T22:34:49.528Z,69.57
2023-02-11T22:37:17.452Z,68.67
2023-02-11T22:39:44.020Z,70.00
2023-02-11T22:42:10.574Z,72.40
2023-02-11T22:44:37.380Z,64.30
2023-02-11T22:47:03.979Z,70.60
2023-02-11T22:49:32.421Z,70.67
2023-02-11T22:51:59.375Z,78.13
2023-02-11T22:54:27.481Z,73.23
2023-02-11T22:56:54.101Z,72.83
2023-02-11T22:59:21.123Z,74.40
2023-02-11T23:01:47.938Z,75.50
2023-02-11T23:04:16.966Z,71.43
2023-02-11T23:06:43.882Z,73.10
2023-02-11T23:09:12.368Z,80.20
2023-02-11T23:11:40.428Z,77.77
2023-02-11T23:14:08.565Z,74.43
2023-02-11T23:16:35.475Z,75.57
2023-02-11T23:19:08.745Z,80.23
2023-02-11T23:21:38.431Z,82.73
2023-02-11T23:24:08.395Z,77.40
2023-02-11T23:26:35.180Z,79.87
2023-02-11T23:29:01.833Z,77.23
2023-02-11T23:31:33.704Z,78.17
2023-02-11T23:34:01.107Z,82.73
2023-02-11T23:36:27.991Z,81.20
2023-02-11T23:38:54.865Z,79.93
2023-02-11T23:41:22.440Z,73.97
2023-02-11T23:43:51.056Z,83.57
2023-02-11T23:46:17.794Z,77.30
2023-02-11T23:48:44.702Z,74.23
2023-02-11T23:51:11.269Z,80.93
2023-02-11T23:53:39.135Z,79.90
2023-02-11T23:56:07.706Z,80.60
2023-02-11T23:58:34.553Z,80.37
